Impacts METAR Board
IDs:

KASD - Slidell Arpt, LA, US

Updated at: 1000 UTC 17 Feb 2019
Potential Impact None Slight Moderate High
Time 16/22Z 16/23Z 17/00Z 17/01Z 17/02Z 17/03Z 17/04Z 17/05Z 17/06Z 17/07Z 17/08Z 17/09Z 17/10Z
Temp74 72 70 69 68 66 67 67 66 66 66 66 67
Dewpt63 63 64 65 65 65 65 65 65 64 64 65 65
Altim29.76 29.76 29.74 29.77 29.78 29.79 29.79 29.78 29.79 29.78 29.77 29.76 29.76
VIS10 10 9 9 8 0.5 3 10 1.25 8 9 4 7
CIG33 29 32 9 6 2 2 3 3 3 3 2 3
CoverOVCOVCOVCOVCOVCOVXOVCOVCOVCOVCOVCOVCOVC
FltCatVFRMVFRVFRIFRIFRLIFRLIFRLIFRLIFRLIFRLIFRLIFRLIFR
WX----------FGBR--BR----BR--
WDir170140120140160170170170180180170170160
WSpd7 5 6 6 9 7 7 7 10 8 7 5 6
WGst-- -- -- -- -- -- -- -- -- -- -- -- --
Raw hourly METARs
KASD 162153Z AUTO 17007KT 10SM FEW026 BKN033 OVC044 23/17 A2976 RMK AO2 SLP076 T02330172
KASD 162253Z AUTO 14005KT 10SM SCT023 BKN029 OVC046 22/17 A2976 RMK AO2 SLP076 T02220172
KASD 162353Z AUTO 12006KT 9SM SCT016 BKN032 OVC048 21/18 A2974 RMK AO2 SLP072 T02110178 10239 20211 58002
KASD 170053Z AUTO 14006KT 9SM BKN009 BKN017 OVC050 21/18 A2977 RMK AO2 SLP080 T02060183
KASD 170153Z AUTO 16009KT 8SM BKN006 OVC046 20/18 A2978 RMK AO2 CIG 005V010 SLP084 T02000183
KASD 170253Z AUTO 17007KT 1/2SM FG VV002 19/18 A2979 RMK AO2 SLP088 T01890183 51016
KASD 170403Z AUTO 17007KT 3SM BR OVC002 19/18 A2979 RMK AO2 T01940183
KASD 170453Z AUTO 17007KT 10SM OVC003 19/18 A2978 RMK AO2 SLP085 T01940183
KASD 170553Z AUTO 18010KT 1 1/4SM BR OVC003 19/18 A2979 RMK AO2 SLP087 T01890183 10206 20189 402390178 55001
KASD 170653Z AUTO 18008KT 8SM OVC003 19/18 A2978 RMK AO2 SLP084 T01890178
KASD 170753Z AUTO 17007KT 9SM OVC003 19/18 A2977 RMK AO2 SLP081 T01890178
KASD 170853Z AUTO 17005KT 4SM BR OVC002 19/18 A2976 RMK AO2 SLP076 T01890183 58010
KASD 170953Z AUTO 16006KT 7SM OVC003 19/18 A2976 RMK AO2 SLP076 T01940183



Page loaded:  10:03 UTC  |   02:03 AM Pacific  |   03:03 AM Mountain  |   04:03 AM Central  |   05:03 AM Eastern

 

ADVISORIES

FORECASTS

FORECASTS

OBSERVATIONS

USER TOOLS

ABOUT US